sensor_id;sensor_type;location;lat;lon;timestamp;P1;durP1;ratioP1;P2;durP2;ratioP2
18316;SDS011;9284;52.298;21.164;2022-12-01T04:09:17;20.80;;;10.30;;
18316;SDS011;9284;52.298;21.164;2022-12-01T04:11:45;21.50;;;10.13;;
18316;SDS011;9284;52.298;21.164;2022-12-01T04:14:31;21.70;;;10.87;;
18316;SDS011;9284;52.298;21.164;2022-12-01T04:16:59;21.33;;;10.43;;
18316;SDS011;9284;52.298;21.164;2022-12-01T04:19:28;25.07;;;11.57;;
18316;SDS011;9284;52.298;21.164;2022-12-01T04:21:57;26.00;;;11.20;;
18316;SDS011;9284;52.298;21.164;2022-12-01T04:24:26;21.87;;;11.30;;
18316;SDS011;9284;52.298;21.164;2022-12-01T04:26:54;23.77;;;11.47;;
18316;SDS011;9284;52.298;21.164;2022-12-01T04:29:22;21.87;;;11.53;;
18316;SDS011;9284;52.298;21.164;2022-12-01T04:31:52;24.67;;;11.70;;
18316;SDS011;9284;52.298;21.164;2022-12-01T04:34:20;24.10;;;11.07;;
18316;SDS011;9284;52.298;21.164;2022-12-01T04:36:48;22.60;;;11.20;;
18316;SDS011;9284;52.298;21.164;2022-12-01T04:39:16;23.67;;;10.37;;
18316;SDS011;9284;52.298;21.164;2022-12-01T04:41:46;24.50;;;11.63;;
18316;SDS011;9284;52.298;21.164;2022-12-01T04:44:14;23.33;;;11.53;;
18316;SDS011;9284;52.298;21.164;2022-12-01T04:46:42;21.73;;;11.03;;
18316;SDS011;9284;52.298;21.164;2022-12-01T04:49:11;19.97;;;11.07;;
18316;SDS011;9284;52.298;21.164;2022-12-01T04:51:39;21.33;;;11.17;;
18316;SDS011;9284;52.298;21.164;2022-12-01T04:54:07;22.07;;;11.20;;
18316;SDS011;9284;52.298;21.164;2022-12-01T04:56:35;19.57;;;10.57;;
18316;SDS011;9284;52.298;21.164;2022-12-01T04:59:04;22.00;;;11.23;;
18316;SDS011;9284;52.298;21.164;2022-12-01T05:01:33;20.53;;;10.97;;
18316;SDS011;9284;52.298;21.164;2022-12-01T05:04:01;22.30;;;11.00;;
18316;SDS011;9284;52.298;21.164;2022-12-01T05:06:29;19.00;;;10.40;;
18316;SDS011;9284;52.298;21.164;2022-12-01T05:08:58;18.53;;;9.83;;
18316;SDS011;9284;52.298;21.164;2022-12-01T05:11:28;19.13;;;10.23;;
18316;SDS011;9284;52.298;21.164;2022-12-01T05:13:57;18.70;;;10.33;;
18316;SDS011;9284;52.298;21.164;2022-12-01T05:16:27;17.43;;;9.67;;
18316;SDS011;9284;52.298;21.164;2022-12-01T05:19:00;21.97;;;10.93;;
18316;SDS011;9284;52.298;21.164;2022-12-01T05:21:48;19.97;;;10.23;;
18316;SDS011;9284;52.298;21.164;2022-12-01T05:24:17;19.23;;;10.40;;
18316;SDS011;9284;52.298;21.164;2022-12-01T05:26:45;22.10;;;11.13;;
18316;SDS011;9284;52.298;21.164;2022-12-01T05:29:13;19.13;;;10.10;;
18316;SDS011;9284;52.298;21.164;2022-12-01T05:31:43;17.30;;;9.77;;
18316;SDS011;9284;52.298;21.164;2022-12-01T05:34:11;18.33;;;9.57;;
18316;SDS011;9284;52.298;21.164;2022-12-01T05:36:40;17.57;;;9.53;;
18316;SDS011;9284;52.298;21.164;2022-12-01T05:39:08;19.90;;;9.50;;
18316;SDS011;9284;52.298;21.164;2022-12-01T05:41:37;22.17;;;10.10;;
18316;SDS011;9284;52.298;21.164;2022-12-01T05:44:05;19.07;;;10.47;;
18316;SDS011;9284;52.298;21.164;2022-12-01T05:46:33;16.53;;;9.07;;
18316;SDS011;9284;52.298;21.164;2022-12-01T05:49:03;18.00;;;10.07;;
18316;SDS011;9284;52.298;21.164;2022-12-01T05:51:32;17.03;;;9.67;;
18316;SDS011;9284;52.298;21.164;2022-12-01T05:54:00;18.77;;;10.13;;
18316;SDS011;9284;52.298;21.164;2022-12-01T05:56:28;20.03;;;10.50;;
18316;SDS011;9284;52.298;21.164;2022-12-01T05:58:56;18.40;;;9.97;;
18316;SDS011;9284;52.298;21.164;2022-12-01T06:01:24;20.20;;;9.50;;
18316;SDS011;9284;52.298;21.164;2022-12-01T06:03:52;16.70;;;9.43;;
18316;SDS011;9284;52.298;21.164;2022-12-01T06:06:22;17.93;;;9.87;;
18316;SDS011;9284;52.298;21.164;2022-12-01T06:08:53;18.43;;;10.27;;
18316;SDS011;9284;52.298;21.164;2022-12-01T06:11:21;18.47;;;9.70;;
18316;SDS011;9284;52.298;21.164;2022-12-01T06:13:49;18.27;;;10.03;;
18316;SDS011;9284;52.298;21.164;2022-12-01T06:16:19;18.97;;;10.37;;
18316;SDS011;9284;52.298;21.164;2022-12-01T06:18:47;19.97;;;10.23;;
18316;SDS011;9284;52.298;21.164;2022-12-01T06:21:17;18.30;;;9.73;;
18316;SDS011;9284;52.298;21.164;2022-12-01T06:23:46;20.40;;;10.47;;
18316;SDS011;9284;52.298;21.164;2022-12-01T06:26:16;19.23;;;10.70;;
18316;SDS011;9284;52.298;21.164;2022-12-01T06:28:44;18.17;;;9.83;;
18316;SDS011;9284;52.298;21.164;2022-12-01T06:31:12;17.53;;;10.10;;
18316;SDS011;9284;52.298;21.164;2022-12-01T06:33:40;19.97;;;9.63;;
18316;SDS011;9284;52.298;21.164;2022-12-01T06:36:09;20.77;;;10.77;;
18316;SDS011;9284;52.298;21.164;2022-12-01T06:38:37;20.23;;;10.17;;
18316;SDS011;9284;52.298;21.164;2022-12-01T06:41:06;21.70;;;10.83;;
18316;SDS011;9284;52.298;21.164;2022-12-01T06:43:35;19.30;;;10.43;;
18316;SDS011;9284;52.298;21.164;2022-12-01T06:46:04;22.70;;;11.00;;
18316;SDS011;9284;52.298;21.164;2022-12-01T06:48:32;21.67;;;11.63;;
18316;SDS011;9284;52.298;21.164;2022-12-01T06:51:00;22.43;;;11.90;;
18316;SDS011;9284;52.298;21.164;2022-12-01T06:53:29;23.67;;;11.13;;
18316;SDS011;9284;52.298;21.164;2022-12-01T06:55:58;24.23;;;11.93;;
18316;SDS011;9284;52.298;21.164;2022-12-01T06:58:28;22.60;;;12.20;;
18316;SDS011;9284;52.298;21.164;2022-12-01T07:00:57;26.37;;;11.83;;
18316;SDS011;9284;52.298;21.164;2022-12-01T07:03:25;24.50;;;12.27;;
18316;SDS011;9284;52.298;21.164;2022-12-01T07:05:53;22.47;;;11.50;;
18316;SDS011;9284;52.298;21.164;2022-12-01T07:08:24;26.43;;;12.10;;
18316;SDS011;9284;52.298;21.164;2022-12-01T07:10:55;21.07;;;11.13;;
18316;SDS011;9284;52.298;21.164;2022-12-01T07:13:24;22.57;;;11.30;;
18316;SDS011;9284;52.298;21.164;2022-12-01T07:15:59;23.23;;;11.57;;
18316;SDS011;9284;52.298;21.164;2022-12-01T07:18:28;22.07;;;10.87;;
18316;SDS011;9284;52.298;21.164;2022-12-01T07:20:57;19.77;;;10.80;;
18316;SDS011;9284;52.298;21.164;2022-12-01T07:23:27;22.40;;;11.03;;
18316;SDS011;9284;52.298;21.164;2022-12-01T07:25:58;23.13;;;12.20;;
18316;SDS011;9284;52.298;21.164;2022-12-01T07:28:27;20.47;;;11.40;;
18316;SDS011;9284;52.298;21.164;2022-12-01T07:31:01;23.40;;;10.93;;
18316;SDS011;9284;52.298;21.164;2022-12-01T07:33:30;21.13;;;10.97;;
18316;SDS011;9284;52.298;21.164;2022-12-01T07:35:59;20.20;;;10.30;;
18316;SDS011;9284;52.298;21.164;2022-12-01T07:38:27;22.90;;;10.87;;
18316;SDS011;9284;52.298;21.164;2022-12-01T07:41:00;20.07;;;11.20;;
18316;SDS011;9284;52.298;21.164;2022-12-01T07:43:28;19.00;;;10.03;;
18316;SDS011;9284;52.298;21.164;2022-12-01T07:46:03;18.57;;;10.10;;
18316;SDS011;9284;52.298;21.164;2022-12-01T07:48:32;21.93;;;11.37;;
18316;SDS011;9284;52.298;21.164;2022-12-01T07:51:01;24.33;;;11.07;;
18316;SDS011;9284;52.298;21.164;2022-12-01T07:53:30;19.47;;;10.70;;
18316;SDS011;9284;52.298;21.164;2022-12-01T07:55:58;22.80;;;11.27;;
18316;SDS011;9284;52.298;21.164;2022-12-01T07:58:33;20.73;;;10.60;;
18316;SDS011;9284;52.298;21.164;2022-12-01T08:01:07;21.63;;;10.73;;
18316;SDS011;9284;52.298;21.164;2022-12-01T08:03:37;23.60;;;11.10;;
18316;SDS011;9284;52.298;21.164;2022-12-01T08:06:06;20.07;;;10.80;;
18316;SDS011;9284;52.298;21.164;2022-12-01T08:08:36;19.90;;;10.77;;
18316;SDS011;9284;52.298;21.164;2022-12-01T08:11:05;23.73;;;11.13;;
18316;SDS011;9284;52.298;21.164;2022-12-01T08:13:36;23.70;;;11.10;;
18316;SDS011;9284;52.298;21.164;2022-12-01T08:16:07;25.03;;;11.93;;
18316;SDS011;9284;52.298;21.164;2022-12-01T08:18:39;20.10;;;10.67;;
18316;SDS011;9284;52.298;21.164;2022-12-01T08:21:11;20.93;;;10.63;;
18316;SDS011;9284;52.298;21.164;2022-12-01T08:23:41;26.43;;;11.53;;
18316;SDS011;9284;52.298;21.164;2022-12-01T08:26:10;22.33;;;11.37;;
18316;SDS011;9284;52.298;21.164;2022-12-01T08:28:40;23.83;;;12.50;;
18316;SDS011;9284;52.298;21.164;2022-12-01T08:31:11;24.63;;;12.10;;
18316;SDS011;9284;52.298;21.164;2022-12-01T08:33:40;23.90;;;12.20;;
18316;SDS011;9284;52.298;21.164;2022-12-01T08:36:08;23.47;;;11.30;;
18316;SDS011;9284;52.298;21.164;2022-12-01T08:38:37;23.00;;;12.20;;
18316;SDS011;9284;52.298;21.164;2022-12-01T08:41:05;25.67;;;11.73;;
18316;SDS011;9284;52.298;21.164;2022-12-01T08:43:35;22.60;;;11.83;;
18316;SDS011;9284;52.298;21.164;2022-12-01T08:46:27;23.60;;;11.63;;
18316;SDS011;9284;52.298;21.164;2022-12-01T08:48:58;32.60;;;12.73;;
18316;SDS011;9284;52.298;21.164;2022-12-01T08:51:26;24.63;;;12.33;;
18316;SDS011;9284;52.298;21.164;2022-12-01T08:53:54;27.30;;;13.00;;
18316;SDS011;9284;52.298;21.164;2022-12-01T08:56:24;28.60;;;12.47;;
18316;SDS011;9284;52.298;21.164;2022-12-01T08:58:53;26.67;;;13.13;;
18316;SDS011;9284;52.298;21.164;2022-12-01T09:01:22;29.87;;;13.20;;
18316;SDS011;9284;52.298;21.164;2022-12-01T09:03:52;27.33;;;12.43;;
18316;SDS011;9284;52.298;21.164;2022-12-01T09:06:32;28.97;;;13.10;;
18316;SDS011;9284;52.298;21.164;2022-12-01T09:09:03;27.50;;;12.67;;
18316;SDS011;9284;52.298;21.164;2022-12-01T09:11:32;26.00;;;13.23;;
18316;SDS011;9284;52.298;21.164;2022-12-01T09:14:00;27.83;;;13.13;;
18316;SDS011;9284;52.298;21.164;2022-12-01T09:16:28;31.40;;;14.40;;
18316;SDS011;9284;52.298;21.164;2022-12-01T09:18:58;28.03;;;12.90;;
18316;SDS011;9284;52.298;21.164;2022-12-01T09:21:26;28.67;;;12.80;;
18316;SDS011;9284;52.298;21.164;2022-12-01T09:23:56;28.53;;;12.27;;
18316;SDS011;9284;52.298;21.164;2022-12-01T09:26:25;28.67;;;12.43;;
18316;SDS011;9284;52.298;21.164;2022-12-01T09:28:54;29.00;;;13.20;;
18316;SDS011;9284;52.298;21.164;2022-12-01T09:31:31;28.03;;;12.50;;
18316;SDS011;9284;52.298;21.164;2022-12-01T09:34:02;26.87;;;12.13;;
18316;SDS011;9284;52.298;21.164;2022-12-01T09:36:32;26.50;;;12.07;;
18316;SDS011;9284;52.298;21.164;2022-12-01T09:39:01;30.80;;;12.37;;
18316;SDS011;9284;52.298;21.164;2022-12-01T09:41:32;24.77;;;12.17;;
18316;SDS011;9284;52.298;21.164;2022-12-01T09:44:03;24.73;;;12.20;;
18316;SDS011;9284;52.298;21.164;2022-12-01T09:46:41;26.33;;;12.30;;
18316;SDS011;9284;52.298;21.164;2022-12-01T09:49:16;33.20;;;13.60;;
18316;SDS011;9284;52.298;21.164;2022-12-01T09:51:48;28.80;;;13.97;;
18316;SDS011;9284;52.298;21.164;2022-12-01T09:54:17;32.60;;;13.47;;
18316;SDS011;9284;52.298;21.164;2022-12-01T09:56:45;29.37;;;13.70;;
18316;SDS011;9284;52.298;21.164;2022-12-01T09:59:19;26.23;;;12.50;;
18316;SDS011;9284;52.298;21.164;2022-12-01T10:01:51;26.13;;;12.63;;
18316;SDS011;9284;52.298;21.164;2022-12-01T10:04:25;27.73;;;13.43;;
18316;SDS011;9284;52.298;21.164;2022-12-01T10:06:58;27.73;;;12.77;;
18316;SDS011;9284;52.298;21.164;2022-12-01T10:09:30;26.47;;;12.97;;
18316;SDS011;9284;52.298;21.164;2022-12-01T10:12:05;27.33;;;12.57;;
18316;SDS011;9284;52.298;21.164;2022-12-01T10:14:39;25.40;;;12.13;;
18316;SDS011;9284;52.298;21.164;2022-12-01T10:17:12;28.03;;;13.10;;
18316;SDS011;9284;52.298;21.164;2022-12-01T10:19:51;25.80;;;13.33;;
18316;SDS011;9284;52.298;21.164;2022-12-01T10:22:31;29.97;;;13.37;;
18316;SDS011;9284;52.298;21.164;2022-12-01T10:25:14;30.33;;;13.00;;
18316;SDS011;9284;52.298;21.164;2022-12-01T10:27:50;31.97;;;14.03;;
18316;SDS011;9284;52.298;21.164;2022-12-01T10:30:26;32.23;;;13.67;;
18316;SDS011;9284;52.298;21.164;2022-12-01T10:32:55;29.47;;;13.87;;
18316;SDS011;9284;52.298;21.164;2022-12-01T10:35:30;34.83;;;14.47;;
18316;SDS011;9284;52.298;21.164;2022-12-01T10:38:02;31.03;;;13.93;;
18316;SDS011;9284;52.298;21.164;2022-12-01T10:40:32;33.97;;;15.17;;
18316;SDS011;9284;52.298;21.164;2022-12-01T10:43:01;35.40;;;15.33;;
18316;SDS011;9284;52.298;21.164;2022-12-01T10:45:30;31.50;;;14.37;;
18316;SDS011;9284;52.298;21.164;2022-12-01T10:48:12;32.17;;;14.13;;
18316;SDS011;9284;52.298;21.164;2022-12-01T10:50:44;35.97;;;14.47;;
18316;SDS011;9284;52.298;21.164;2022-12-01T10:53:24;36.90;;;16.77;;
18316;SDS011;9284;52.298;21.164;2022-12-01T10:55:58;36.10;;;14.73;;
18316;SDS011;9284;52.298;21.164;2022-12-01T10:58:30;35.07;;;15.40;;
18316;SDS011;9284;52.298;21.164;2022-12-01T11:01:00;36.03;;;15.77;;
18316;SDS011;9284;52.298;21.164;2022-12-01T11:03:32;37.20;;;15.90;;
18316;SDS011;9284;52.298;21.164;2022-12-01T11:06:04;38.37;;;16.33;;
18316;SDS011;9284;52.298;21.164;2022-12-01T11:08:35;38.33;;;16.70;;
18316;SDS011;9284;52.298;21.164;2022-12-01T11:11:19;35.67;;;15.87;;
18316;SDS011;9284;52.298;21.164;2022-12-01T11:13:51;37.43;;;16.20;;
18316;SDS011;9284;52.298;21.164;2022-12-01T11:16:33;33.50;;;14.93;;
18316;SDS011;9284;52.298;21.164;2022-12-01T11:19:09;43.73;;;17.23;;
18316;SDS011;9284;52.298;21.164;2022-12-01T11:21:55;40.50;;;16.67;;
18316;SDS011;9284;52.298;21.164;2022-12-01T11:24:26;43.80;;;17.07;;
18316;SDS011;9284;52.298;21.164;2022-12-01T11:26:56;40.00;;;17.10;;
18316;SDS011;9284;52.298;21.164;2022-12-01T11:29:28;42.33;;;16.17;;
18316;SDS011;9284;52.298;21.164;2022-12-01T11:32:01;39.63;;;15.63;;
18316;SDS011;9284;52.298;21.164;2022-12-01T11:34:37;40.67;;;16.63;;
18316;SDS011;9284;52.298;21.164;2022-12-01T11:37:07;40.90;;;15.83;;
18316;SDS011;9284;52.298;21.164;2022-12-01T11:39:44;45.37;;;17.67;;
18316;SDS011;9284;52.298;21.164;2022-12-01T11:42:17;38.37;;;17.07;;
18316;SDS011;9284;52.298;21.164;2022-12-01T11:44:52;41.60;;;16.57;;
18316;SDS011;9284;52.298;21.164;2022-12-01T11:47:23;44.23;;;17.53;;
18316;SDS011;9284;52.298;21.164;2022-12-01T11:49:53;44.27;;;17.10;;
18316;SDS011;9284;52.298;21.164;2022-12-01T11:52:26;42.10;;;16.70;;
18316;SDS011;9284;52.298;21.164;2022-12-01T11:54:57;42.83;;;16.43;;
18316;SDS011;9284;52.298;21.164;2022-12-01T11:57:45;40.50;;;15.50;;
18316;SDS011;9284;52.298;21.164;2022-12-01T12:00:18;41.90;;;15.77;;
18316;SDS011;9284;52.298;21.164;2022-12-01T12:02:54;38.13;;;16.97;;
18316;SDS011;9284;52.298;21.164;2022-12-01T12:08:59;38.27;;;16.80;;
18316;SDS011;9284;52.298;21.164;2022-12-01T12:11:39;41.30;;;16.00;;
18316;SDS011;9284;52.298;21.164;2022-12-01T12:14:28;45.43;;;17.53;;
18316;SDS011;9284;52.298;21.164;2022-12-01T12:17:10;45.97;;;15.23;;
18316;SDS011;9284;52.298;21.164;2022-12-01T12:19:55;34.13;;;12.83;;
18316;SDS011;9284;52.298;21.164;2022-12-01T12:22:42;35.80;;;14.17;;
18316;SDS011;9284;52.298;21.164;2022-12-01T12:25:26;36.97;;;12.60;;
18316;SDS011;9284;52.298;21.164;2022-12-01T12:28:05;32.43;;;12.87;;
18316;SDS011;9284;52.298;21.164;2022-12-01T12:30:45;31.10;;;12.87;;
18316;SDS011;9284;52.298;21.164;2022-12-01T12:33:36;31.40;;;12.63;;
18316;SDS011;9284;52.298;21.164;2022-12-01T12:36:28;29.93;;;12.93;;
18316;SDS011;9284;52.298;21.164;2022-12-01T12:39:10;29.73;;;12.33;;
18316;SDS011;9284;52.298;21.164;2022-12-01T12:41:54;27.13;;;12.43;;
18316;SDS011;9284;52.298;21.164;2022-12-01T12:44:29;34.47;;;13.57;;
18316;SDS011;9284;52.298;21.164;2022-12-01T12:47:19;28.07;;;11.73;;
18316;SDS011;9284;52.298;21.164;2022-12-01T12:49:58;28.13;;;11.33;;
18316;SDS011;9284;52.298;21.164;2022-12-01T12:52:36;29.23;;;10.90;;
18316;SDS011;9284;52.298;21.164;2022-12-01T12:55:10;26.30;;;10.10;;
18316;SDS011;9284;52.298;21.164;2022-12-01T12:57:46;21.33;;;9.43;;
18316;SDS011;9284;52.298;21.164;2022-12-01T13:00:20;21.57;;;8.90;;
18316;SDS011;9284;52.298;21.164;2022-12-01T13:02:52;22.60;;;9.73;;
18316;SDS011;9284;52.298;21.164;2022-12-01T13:05:26;18.90;;;8.70;;
18316;SDS011;9284;52.298;21.164;2022-12-01T13:08:02;21.50;;;9.30;;
18316;SDS011;9284;52.298;21.164;2022-12-01T13:10:36;16.50;;;8.20;;
18316;SDS011;9284;52.298;21.164;2022-12-01T13:13:24;21.60;;;8.30;;
18316;SDS011;9284;52.298;21.164;2022-12-01T13:15:57;15.23;;;8.00;;
18316;SDS011;9284;52.298;21.164;2022-12-01T13:18:32;16.57;;;7.97;;
18316;SDS011;9284;52.298;21.164;2022-12-01T13:21:05;17.87;;;7.37;;
18316;SDS011;9284;52.298;21.164;2022-12-01T13:23:38;15.63;;;7.53;;
18316;SDS011;9284;52.298;21.164;2022-12-01T13:26:07;19.17;;;8.13;;
18316;SDS011;9284;52.298;21.164;2022-12-01T13:28:38;17.53;;;8.10;;
18316;SDS011;9284;52.298;21.164;2022-12-01T13:31:09;16.30;;;7.57;;
18316;SDS011;9284;52.298;21.164;2022-12-01T13:33:43;18.10;;;7.27;;
18316;SDS011;9284;52.298;21.164;2022-12-01T13:36:19;15.03;;;7.70;;
18316;SDS011;9284;52.298;21.164;2022-12-01T13:39:14;15.10;;;6.93;;
18316;SDS011;9284;52.298;21.164;2022-12-01T13:41:45;12.87;;;7.03;;
18316;SDS011;9284;52.298;21.164;2022-12-01T13:44:27;14.87;;;7.23;;
18316;SDS011;9284;52.298;21.164;2022-12-01T13:47:00;15.07;;;6.57;;
18316;SDS011;9284;52.298;21.164;2022-12-01T13:49:38;15.23;;;7.23;;
18316;SDS011;9284;52.298;21.164;2022-12-01T13:52:25;15.30;;;7.33;;
18316;SDS011;9284;52.298;21.164;2022-12-01T14:00:50;18.50;;;7.93;;
18316;SDS011;9284;52.298;21.164;2022-12-01T14:03:38;16.87;;;8.40;;
18316;SDS011;9284;52.298;21.164;2022-12-01T14:06:08;17.30;;;8.13;;
18316;SDS011;9284;52.298;21.164;2022-12-01T14:08:47;14.80;;;6.93;;
18316;SDS011;9284;52.298;21.164;2022-12-01T14:11:18;18.83;;;8.70;;
18316;SDS011;9284;52.298;21.164;2022-12-01T14:13:49;18.33;;;8.33;;
18316;SDS011;9284;52.298;21.164;2022-12-01T14:16:21;16.03;;;7.90;;
18316;SDS011;9284;52.298;21.164;2022-12-01T14:18:50;18.53;;;8.23;;
18316;SDS011;9284;52.298;21.164;2022-12-01T14:24:17;17.13;;;8.40;;
18316;SDS011;9284;52.298;21.164;2022-12-01T14:26:48;18.03;;;8.57;;
18316;SDS011;9284;52.298;21.164;2022-12-01T14:29:28;18.47;;;8.17;;
18316;SDS011;9284;52.298;21.164;2022-12-01T14:34:53;15.93;;;8.37;;
18316;SDS011;9284;52.298;21.164;2022-12-01T14:37:27;18.23;;;8.77;;
18316;SDS011;9284;52.298;21.164;2022-12-01T14:40:04;16.97;;;8.03;;
18316;SDS011;9284;52.298;21.164;2022-12-01T14:42:38;17.43;;;8.53;;
18316;SDS011;9284;52.298;21.164;2022-12-01T14:45:27;18.50;;;8.23;;
18316;SDS011;9284;52.298;21.164;2022-12-01T14:48:01;16.93;;;8.43;;
18316;SDS011;9284;52.298;21.164;2022-12-01T14:50:35;17.60;;;8.57;;
18316;SDS011;9284;52.298;21.164;2022-12-01T14:53:17;16.17;;;9.20;;
18316;SDS011;9284;52.298;21.164;2022-12-01T14:55:51;16.47;;;8.57;;
18316;SDS011;9284;52.298;21.164;2022-12-01T14:58:23;16.00;;;8.10;;
18316;SDS011;9284;52.298;21.164;2022-12-01T15:00:58;17.83;;;8.43;;
18316;SDS011;9284;52.298;21.164;2022-12-01T15:03:34;16.37;;;8.37;;
18316;SDS011;9284;52.298;21.164;2022-12-01T15:06:05;22.00;;;9.60;;
18316;SDS011;9284;52.298;21.164;2022-12-01T15:08:34;18.10;;;8.90;;
18316;SDS011;9284;52.298;21.164;2022-12-01T15:11:20;18.33;;;9.30;;
18316;SDS011;9284;52.298;21.164;2022-12-01T15:13:51;18.57;;;9.03;;
18316;SDS011;9284;52.298;21.164;2022-12-01T15:16:21;24.17;;;10.03;;
18316;SDS011;9284;52.298;21.164;2022-12-01T15:18:52;19.07;;;9.60;;
18316;SDS011;9284;52.298;21.164;2022-12-01T15:21:21;22.87;;;9.70;;
18316;SDS011;9284;52.298;21.164;2022-12-01T15:23:51;20.57;;;9.50;;
18316;SDS011;9284;52.298;21.164;2022-12-01T15:26:20;19.20;;;9.43;;
18316;SDS011;9284;52.298;21.164;2022-12-01T15:29:02;20.43;;;9.40;;
18316;SDS011;9284;52.298;21.164;2022-12-01T15:31:42;20.93;;;9.90;;
18316;SDS011;9284;52.298;21.164;2022-12-01T15:34:14;20.87;;;10.63;;
18316;SDS011;9284;52.298;21.164;2022-12-01T15:36:45;18.80;;;9.20;;
18316;SDS011;9284;52.298;21.164;2022-12-01T15:39:15;20.47;;;10.33;;
18316;SDS011;9284;52.298;21.164;2022-12-01T15:41:46;20.60;;;9.90;;
18316;SDS011;9284;52.298;21.164;2022-12-01T15:44:20;20.67;;;10.53;;
18316;SDS011;9284;52.298;21.164;2022-12-01T15:46:53;19.63;;;9.83;;
18316;SDS011;9284;52.298;21.164;2022-12-01T15:49:25;20.20;;;9.60;;
18316;SDS011;9284;52.298;21.164;2022-12-01T15:52:03;25.13;;;10.17;;
18316;SDS011;9284;52.298;21.164;2022-12-01T15:54:33;20.80;;;9.53;;
18316;SDS011;9284;52.298;21.164;2022-12-01T15:57:03;19.50;;;10.03;;
18316;SDS011;9284;52.298;21.164;2022-12-01T15:59:35;22.93;;;11.63;;
18316;SDS011;9284;52.298;21.164;2022-12-01T16:02:14;21.30;;;10.57;;
18316;SDS011;9284;52.298;21.164;2022-12-01T16:04:59;21.60;;;10.80;;
18316;SDS011;9284;52.298;21.164;2022-12-01T16:07:32;22.87;;;11.23;;
18316;SDS011;9284;52.298;21.164;2022-12-01T16:10:26;25.30;;;10.87;;
18316;SDS011;9284;52.298;21.164;2022-12-01T16:15:58;25.03;;;11.13;;
18316;SDS011;9284;52.298;21.164;2022-12-01T16:18:28;24.53;;;12.13;;
18316;SDS011;9284;52.298;21.164;2022-12-01T16:21:02;24.70;;;11.23;;
18316;SDS011;9284;52.298;21.164;2022-12-01T16:23:31;24.93;;;11.83;;
18316;SDS011;9284;52.298;21.164;2022-12-01T16:25:59;27.17;;;12.23;;
18316;SDS011;9284;52.298;21.164;2022-12-01T16:28:34;19.60;;;10.90;;
18316;SDS011;9284;52.298;21.164;2022-12-01T16:31:02;29.77;;;12.77;;
18316;SDS011;9284;52.298;21.164;2022-12-01T16:33:36;26.13;;;12.50;;
18316;SDS011;9284;52.298;21.164;2022-12-01T16:36:06;33.30;;;14.93;;
18316;SDS011;9284;52.298;21.164;2022-12-01T16:38:35;30.13;;;13.57;;
18316;SDS011;9284;52.298;21.164;2022-12-01T16:41:13;26.37;;;12.27;;
18316;SDS011;9284;52.298;21.164;2022-12-01T16:43:42;25.40;;;12.60;;
18316;SDS011;9284;52.298;21.164;2022-12-01T16:46:30;32.13;;;12.77;;
18316;SDS011;9284;52.298;21.164;2022-12-01T16:48:59;29.33;;;12.30;;
18316;SDS011;9284;52.298;21.164;2022-12-01T16:51:28;30.80;;;14.30;;
18316;SDS011;9284;52.298;21.164;2022-12-01T16:54:16;28.17;;;13.27;;
18316;SDS011;9284;52.298;21.164;2022-12-01T16:56:46;32.77;;;13.33;;
18316;SDS011;9284;52.298;21.164;2022-12-01T16:59:14;29.37;;;13.20;;
18316;SDS011;9284;52.298;21.164;2022-12-01T17:01:42;33.10;;;13.90;;
18316;SDS011;9284;52.298;21.164;2022-12-01T17:04:11;31.43;;;13.70;;
18316;SDS011;9284;52.298;21.164;2022-12-01T17:06:40;30.63;;;14.63;;
18316;SDS011;9284;52.298;21.164;2022-12-01T17:09:08;31.70;;;14.23;;
18316;SDS011;9284;52.298;21.164;2022-12-01T17:11:37;31.50;;;13.93;;
18316;SDS011;9284;52.298;21.164;2022-12-01T17:14:05;27.33;;;13.70;;
18316;SDS011;9284;52.298;21.164;2022-12-01T17:16:33;30.03;;;13.60;;
18316;SDS011;9284;52.298;21.164;2022-12-01T17:19:01;36.13;;;16.10;;
18316;SDS011;9284;52.298;21.164;2022-12-01T17:21:30;29.37;;;14.70;;
18316;SDS011;9284;52.298;21.164;2022-12-01T17:23:59;31.07;;;14.57;;
18316;SDS011;9284;52.298;21.164;2022-12-01T17:26:28;32.83;;;15.07;;
18316;SDS011;9284;52.298;21.164;2022-12-01T17:28:56;29.93;;;13.70;;
18316;SDS011;9284;52.298;21.164;2022-12-01T17:31:24;29.47;;;13.30;;
18316;SDS011;9284;52.298;21.164;2022-12-01T17:33:53;31.23;;;14.37;;
18316;SDS011;9284;52.298;21.164;2022-12-01T17:36:21;32.93;;;14.87;;
18316;SDS011;9284;52.298;21.164;2022-12-01T17:38:49;30.70;;;14.30;;
18316;SDS011;9284;52.298;21.164;2022-12-01T17:41:19;32.50;;;14.13;;
18316;SDS011;9284;52.298;21.164;2022-12-01T17:43:50;34.27;;;15.37;;
18316;SDS011;9284;52.298;21.164;2022-12-01T17:46:18;37.47;;;14.73;;
18316;SDS011;9284;52.298;21.164;2022-12-01T17:48:46;32.77;;;14.67;;
18316;SDS011;9284;52.298;21.164;2022-12-01T17:51:14;32.30;;;14.17;;
18316;SDS011;9284;52.298;21.164;2022-12-01T17:53:43;26.87;;;13.37;;
18316;SDS011;9284;52.298;21.164;2022-12-01T17:56:13;31.80;;;14.63;;
18316;SDS011;9284;52.298;21.164;2022-12-01T17:58:44;35.90;;;15.10;;
18316;SDS011;9284;52.298;21.164;2022-12-01T18:01:13;34.13;;;15.07;;
18316;SDS011;9284;52.298;21.164;2022-12-01T18:03:43;30.10;;;13.43;;
18316;SDS011;9284;52.298;21.164;2022-12-01T18:06:12;29.87;;;14.97;;
18316;SDS011;9284;52.298;21.164;2022-12-01T18:08:40;27.63;;;13.67;;
18316;SDS011;9284;52.298;21.164;2022-12-01T18:11:10;30.33;;;14.40;;
18316;SDS011;9284;52.298;21.164;2022-12-01T18:13:40;35.60;;;16.07;;
18316;SDS011;9284;52.298;21.164;2022-12-01T18:16:12;32.73;;;15.33;;
18316;SDS011;9284;52.298;21.164;2022-12-01T18:18:42;31.40;;;14.97;;
18316;SDS011;9284;52.298;21.164;2022-12-01T18:21:11;33.60;;;15.80;;
18316;SDS011;9284;52.298;21.164;2022-12-01T18:23:41;30.63;;;14.80;;
18316;SDS011;9284;52.298;21.164;2022-12-01T18:26:14;33.30;;;16.00;;
18316;SDS011;9284;52.298;21.164;2022-12-01T18:28:43;28.77;;;13.77;;
18316;SDS011;9284;52.298;21.164;2022-12-01T18:31:14;31.23;;;13.97;;
18316;SDS011;9284;52.298;21.164;2022-12-01T18:33:43;32.07;;;15.10;;
18316;SDS011;9284;52.298;21.164;2022-12-01T18:36:12;27.67;;;13.50;;
18316;SDS011;9284;52.298;21.164;2022-12-01T18:38:42;28.80;;;14.07;;
18316;SDS011;9284;52.298;21.164;2022-12-01T18:41:13;32.97;;;14.93;;
18316;SDS011;9284;52.298;21.164;2022-12-01T18:43:41;28.57;;;14.53;;
18316;SDS011;9284;52.298;21.164;2022-12-01T18:46:11;32.63;;;15.33;;
18316;SDS011;9284;52.298;21.164;2022-12-01T18:48:42;34.67;;;15.40;;
18316;SDS011;9284;52.298;21.164;2022-12-01T18:51:11;30.77;;;14.93;;
18316;SDS011;9284;52.298;21.164;2022-12-01T18:53:40;31.67;;;14.67;;
18316;SDS011;9284;52.298;21.164;2022-12-01T18:56:10;27.97;;;13.97;;
18316;SDS011;9284;52.298;21.164;2022-12-01T18:58:40;32.33;;;16.23;;
18316;SDS011;9284;52.298;21.164;2022-12-01T19:01:17;33.17;;;15.00;;
18316;SDS011;9284;52.298;21.164;2022-12-01T19:03:47;31.20;;;14.83;;
18316;SDS011;9284;52.298;21.164;2022-12-01T19:06:16;31.10;;;15.07;;
18316;SDS011;9284;52.298;21.164;2022-12-01T19:08:45;33.20;;;15.03;;
18316;SDS011;9284;52.298;21.164;2022-12-01T19:11:14;30.40;;;15.37;;
18316;SDS011;9284;52.298;21.164;2022-12-01T19:13:43;33.27;;;15.93;;
18316;SDS011;9284;52.298;21.164;2022-12-01T19:16:12;31.23;;;14.43;;
18316;SDS011;9284;52.298;21.164;2022-12-01T19:18:43;30.30;;;14.93;;